Time;durP1;ratioP1;P1;durP2;ratioP2;P2;SDS_P1;SDS_P2;PMS_P1;PMS_P2;Temp;Humidity;BMP_temperature;BMP_pressure;BME280_temperature;BME280_humidity;BME280_pressure;Samples;Min_cycle;Max_cycle;Signal;HPM_P1;HPM_P2
2021/04/09 00:01:37;;;;;;;4.80;2.60;;;2.40;81.40;;;;;;5071170;28;20035;-40
2021/04/09 00:04:03;;;;;;;6.32;2.30;;;2.30;81.30;;;;;;5071335;28;20028;-40
2021/04/09 00:06:28;;;;;;;5.70;3.17;;;2.30;81.90;;;;;;5071308;28;20070;-40
2021/04/09 00:08:54;;;;;;;3.90;2.45;;;2.30;82.10;;;;;;5069901;28;20024;-42
2021/04/09 00:11:19;;;;;;;4.43;2.15;;;2.20;82.50;;;;;;5071395;28;20032;-40
2021/04/09 00:13:45;;;;;;;5.22;2.55;;;2.20;82.50;;;;;;5070295;28;20096;-42
2021/04/09 00:16:11;;;;;;;5.50;2.15;;;2.20;82.00;;;;;;5071142;28;20028;-40
2021/04/09 00:18:36;;;;;;;5.90;2.92;;;2.20;82.00;;;;;;5071045;28;20099;-43
2021/04/09 00:21:02;;;;;;;7.45;2.35;;;2.10;82.20;;;;;;5071159;28;20028;-39
2021/04/09 00:23:28;;;;;;;6.55;2.53;;;2.10;82.60;;;;;;5070937;28;20361;-40
2021/04/09 00:25:53;;;;;;;3.70;2.33;;;2.10;82.90;;;;;;5071024;28;20044;-43
2021/04/09 00:28:19;;;;;;;3.67;2.20;;;2.10;83.40;;;;;;5071068;28;20029;-40
2021/04/09 00:30:45;;;;;;;8.02;2.78;;;2.00;83.00;;;;;;5069930;28;20040;-40
2021/04/09 00:33:10;;;;;;;3.10;2.15;;;2.00;83.10;;;;;;5057974;28;20021;-40
2021/04/09 00:35:36;;;;;;;4.53;2.60;;;2.00;83.10;;;;;;5070901;28;20375;-40
2021/04/09 00:38:02;;;;;;;6.82;3.20;;;1.90;83.20;;;;;;5070873;28;20024;-40
2021/04/09 00:40:27;;;;;;;3.92;2.33;;;1.90;83.20;;;;;;5070777;28;20036;-40
2021/04/09 00:42:53;;;;;;;5.88;2.80;;;1.90;83.80;;;;;;5070996;28;20059;-40
2021/04/09 00:45:19;;;;;;;7.20;2.88;;;1.90;84.40;;;;;;5069696;28;20036;-40
2021/04/09 00:47:45;;;;;;;3.08;2.15;;;1.90;83.90;;;;;;5069501;28;20686;-40
2021/04/09 00:50:12;;;;;;;4.13;2.42;;;1.90;84.30;;;;;;5070655;28;20164;-40
2021/04/09 00:52:41;;;;;;;3.92;2.85;;;1.80;84.20;;;;;;5090120;28;20024;-40
2021/04/09 00:55:09;;;;;;;3.25;2.22;;;1.80;84.40;;;;;;5090849;28;20024;-40
2021/04/09 00:57:36;;;;;;;5.57;2.25;;;1.80;84.90;;;;;;5090674;28;20077;-41
2021/04/09 01:00:07;;;;;;;6.35;2.10;;;1.70;85.30;;;;;;5089738;28;20040;-43
2021/04/09 01:02:32;;;;;;;3.80;2.53;;;1.70;85.20;;;;;;5093405;28;20032;-40
2021/04/09 01:04:59;;;;;;;5.63;2.85;;;1.70;85.10;;;;;;5097357;28;20096;-40
2021/04/09 01:07:25;;;;;;;7.65;2.47;;;1.70;85.10;;;;;;5097659;28;20103;-40
2021/04/09 01:09:51;;;;;;;3.42;2.35;;;1.70;85.20;;;;;;5097016;28;20031;-40
2021/04/09 01:12:17;;;;;;;6.85;2.38;;;1.60;84.90;;;;;;5097094;28;20043;-40
2021/04/09 01:14:43;;;;;;;7.13;4.20;;;1.60;86.10;;;;;;5096233;28;20028;-40
2021/04/09 01:17:26;;;;;;;4.40;2.83;;;1.60;85.90;;;;;;5097283;28;20024;-40
2021/04/09 01:20:20;;;;;;;4.28;2.92;;;1.60;85.90;;;;;;5097183;28;20458;-40
2021/04/09 01:23:09;;;;;;;6.65;3.25;;;1.60;87.50;;;;;;5097231;28;20078;-40
2021/04/09 01:26:01;;;;;;;6.88;3.42;;;1.60;88.10;;;;;;5096960;28;20024;-41
2021/04/09 01:28:34;;;;;;;10.90;3.47;;;1.60;87.10;;;;;;5087132;28;20475;-40
2021/04/09 01:31:13;;;;;;;7.63;3.65;;;1.70;88.40;;;;;;5076730;28;20173;-40
2021/04/09 01:33:43;;;;;;;7.13;3.05;;;1.70;87.80;;;;;;5077069;28;20036;-40
2021/04/09 01:36:14;;;;;;;5.97;2.95;;;1.60;88.00;;;;;;5077038;28;20082;-40
2021/04/09 01:38:44;;;;;;;4.93;2.60;;;1.60;87.30;;;;;;5077005;28;20024;-42
2021/04/09 01:41:12;;;;;;;6.53;3.92;;;1.50;87.20;;;;;;5076856;28;20048;-40
2021/04/09 01:43:41;;;;;;;5.55;3.63;;;1.50;87.80;;;;;;5075861;28;20099;-42
2021/04/09 01:46:09;;;;;;;7.47;4.20;;;1.50;88.20;;;;;;5076876;28;20076;-40
2021/04/09 01:48:39;;;;;;;10.82;4.10;;;1.50;88.60;;;;;;5076849;28;20048;-42
2021/04/09 01:51:08;;;;;;;7.35;3.92;;;1.40;87.90;;;;;;5075644;28;20040;-40
2021/04/09 01:53:35;;;;;;;7.70;3.75;;;1.50;88.70;;;;;;5076556;28;20039;-42
2021/04/09 01:56:01;;;;;;;6.60;3.70;;;1.50;88.50;;;;;;5076809;28;20060;-43
2021/04/09 01:58:29;;;;;;;10.32;4.25;;;1.50;88.70;;;;;;5076647;28;20054;-41
2021/04/09 02:01:14;;;;;;;8.70;3.80;;;1.40;88.60;;;;;;5075741;28;20056;-42
2021/04/09 02:03:46;;;;;;;6.03;3.58;;;1.40;89.50;;;;;;5092099;28;20028;-40
2021/04/09 02:06:13;;;;;;;6.35;3.90;;;1.30;89.30;;;;;;5097164;28;20036;-40
2021/04/09 02:08:40;;;;;;;10.75;4.18;;;1.30;89.50;;;;;;5096539;28;20039;-40
2021/04/09 02:11:07;;;;;;;7.10;4.47;;;1.20;89.00;;;;;;5096881;28;20225;-40
2021/04/09 02:13:34;;;;;;;11.32;4.85;;;1.20;89.80;;;;;;5094553;28;20524;-40
2021/04/09 02:16:01;;;;;;;6.25;3.45;;;1.10;90.10;;;;;;5093657;28;20634;-40
2021/04/09 02:18:27;;;;;;;6.07;3.85;;;1.10;90.00;;;;;;5093410;28;20021;-40
2021/04/09 02:20:55;;;;;;;8.20;3.90;;;1.10;90.10;;;;;;5093642;28;20111;-40
2021/04/09 02:23:21;;;;;;;5.93;4.20;;;1.00;90.20;;;;;;5093362;28;20467;-40
2021/04/09 02:25:46;;;;;;;6.93;4.28;;;1.00;90.20;;;;;;5093392;28;20032;-40
2021/04/09 02:28:13;;;;;;;6.93;3.38;;;1.00;90.30;;;;;;5085822;28;20037;-40
2021/04/09 02:30:39;;;;;;;7.75;4.20;;;1.00;90.10;;;;;;5072158;28;20028;-40
2021/04/09 02:33:05;;;;;;;8.10;4.65;;;1.00;90.30;;;;;;5073195;28;20036;-40
2021/04/09 02:35:30;;;;;;;6.20;4.10;;;1.00;90.40;;;;;;5073294;28;20017;-40
2021/04/09 02:37:56;;;;;;;10.07;5.18;;;1.00;90.20;;;;;;5072706;28;20025;-40
2021/04/09 02:40:27;;;;;;;9.15;4.50;;;1.10;90.60;;;;;;5073067;28;20056;-40
2021/04/09 02:42:53;;;;;;;8.48;4.70;;;1.20;90.30;;;;;;5072726;28;20170;-39
2021/04/09 02:45:21;;;;;;;7.60;3.60;;;1.20;90.50;;;;;;5072225;28;20511;-40
2021/04/09 02:47:48;;;;;;;8.63;3.55;;;1.20;90.40;;;;;;5072782;28;20047;-40
2021/04/09 02:50:41;;;;;;;10.15;4.82;;;1.10;90.30;;;;;;5072895;28;20399;-43
2021/04/09 02:53:19;;;;;;;5.35;3.60;;;1.10;90.70;;;;;;5051543;28;20040;-40
2021/04/09 02:55:47;;;;;;;8.20;3.97;;;1.20;90.40;;;;;;5072446;28;20037;-41
2021/04/09 02:58:15;;;;;;;9.52;4.60;;;1.20;90.50;;;;;;5072808;28;20024;-40
2021/04/09 03:00:46;;;;;;;7.82;3.72;;;1.10;90.20;;;;;;5071803;28;20052;-41
2021/04/09 03:03:12;;;;;;;5.70;3.70;;;1.10;90.40;;;;;;5072626;28;20040;-40
2021/04/09 03:05:42;;;;;;;8.93;4.25;;;1.10;90.30;;;;;;5072617;28;20471;-40
2021/04/09 03:08:09;;;;;;;6.30;3.35;;;1.10;90.40;;;;;;5072614;28;20039;-41
2021/04/09 03:10:34;;;;;;;8.02;4.22;;;1.10;90.90;;;;;;5072441;28;20068;-41
2021/04/09 03:13:02;;;;;;;7.43;3.30;;;1.10;90.50;;;;;;5072377;28;20468;-40
2021/04/09 03:15:32;;;;;;;9.13;3.75;;;1.20;90.60;;;;;;5071485;28;20324;-42
2021/04/09 03:18:03;;;;;;;7.78;3.40;;;1.20;90.80;;;;;;5072160;28;20097;-40
2021/04/09 03:20:29;;;;;;;6.97;3.50;;;1.10;90.60;;;;;;5072418;28;20036;-42
2021/04/09 03:22:55;;;;;;;5.40;3.53;;;1.10;90.50;;;;;;5071984;28;20388;-40
2021/04/09 03:25:20;;;;;;;11.80;4.28;;;1.10;90.80;;;;;;5071727;28;20029;-40
2021/04/09 03:27:46;;;;;;;8.73;3.88;;;1.10;90.80;;;;;;5071483;28;20054;-42
2021/04/09 03:30:13;;;;;;;7.18;3.63;;;1.10;90.80;;;;;;5071099;28;20036;-40
2021/04/09 03:32:39;;;;;;;7.05;3.83;;;1.20;90.70;;;;;;5072024;28;20024;-40
2021/04/09 03:35:05;;;;;;;8.45;3.85;;;1.10;90.80;;;;;;5070639;28;20551;-40
2021/04/09 03:37:30;;;;;;;12.05;4.32;;;1.10;90.70;;;;;;5072154;28;20033;-40
2021/04/09 03:39:56;;;;;;;8.13;4.22;;;1.10;90.90;;;;;;5071695;28;20214;-40
2021/04/09 03:42:22;;;;;;;8.07;3.80;;;1.10;90.80;;;;;;5071793;28;20047;-43
2021/04/09 03:44:47;;;;;;;9.73;4.00;;;1.20;90.80;;;;;;5071005;28;20339;-40
2021/04/09 03:47:13;;;;;;;8.38;4.00;;;1.20;90.80;;;;;;5071931;28;20448;-40
2021/04/09 03:49:38;;;;;;;10.88;5.55;;;1.20;90.70;;;;;;5071720;28;20100;-42
2021/04/09 03:52:04;;;;;;;11.35;4.43;;;1.20;90.80;;;;;;5071373;28;20039;-40
2021/04/09 03:54:29;;;;;;;10.95;5.10;;;1.20;90.80;;;;;;5071746;28;20100;-40
2021/04/09 03:56:55;;;;;;;8.73;4.10;;;1.20;90.70;;;;;;5071121;28;20052;-42
2021/04/09 03:59:21;;;;;;;7.75;4.03;;;1.20;90.60;;;;;;5070528;28;20028;-42
2021/04/09 04:01:46;;;;;;;11.48;4.85;;;1.10;90.60;;;;;;5071256;28;20442;-40
2021/04/09 04:04:12;;;;;;;7.20;3.78;;;1.10;90.80;;;;;;5072422;28;20029;-40
2021/04/09 04:06:37;;;;;;;8.75;4.50;;;1.10;90.80;;;;;;5073165;28;20506;-42
2021/04/09 04:09:03;;;;;;;8.07;4.30;;;1.00;91.30;;;;;;5072838;28;20497;-40
2021/04/09 04:11:29;;;;;;;13.40;4.93;;;1.00;91.00;;;;;;5072887;28;20028;-40
2021/04/09 04:13:55;;;;;;;8.38;4.30;;;1.00;91.00;;;;;;5068550;28;20039;-41
2021/04/09 04:16:21;;;;;;;8.90;4.13;;;1.00;91.20;;;;;;5073190;28;20028;-42
2021/04/09 04:18:47;;;;;;;12.20;5.45;;;1.00;91.20;;;;;;5072741;28;20112;-40
2021/04/09 04:21:12;;;;;;;11.73;4.78;;;1.00;91.10;;;;;;5072882;28;20103;-40
2021/04/09 04:23:38;;;;;;;9.38;4.95;;;1.00;91.10;;;;;;5072584;28;20039;-40
2021/04/09 04:26:03;;;;;;;9.68;4.45;;;1.00;91.10;;;;;;5072778;28;20036;-45
2021/04/09 04:28:31;;;;;;;9.45;4.07;;;1.10;91.10;;;;;;5079751;28;20032;-41
2021/04/09 04:31:00;;;;;;;9.18;4.35;;;1.10;90.90;;;;;;5092928;28;20036;-39
2021/04/09 04:33:26;;;;;;;7.35;3.90;;;1.10;90.70;;;;;;5092891;28;20404;-40
2021/04/09 04:35:52;;;;;;;9.30;5.32;;;1.10;90.70;;;;;;5092967;28;20024;-43
2021/04/09 04:38:18;;;;;;;8.50;4.10;;;1.10;90.80;;;;;;5092648;28;20047;-42
2021/04/09 04:40:44;;;;;;;7.60;4.20;;;1.10;90.70;;;;;;5092896;28;20194;-40
2021/04/09 04:43:11;;;;;;;10.43;5.40;;;1.10;90.70;;;;;;5092622;28;20023;-40
2021/04/09 04:45:37;;;;;;;6.97;4.40;;;1.20;90.80;;;;;;5091922;28;20051;-42
2021/04/09 04:48:03;;;;;;;7.65;4.47;;;1.20;90.80;;;;;;5092743;28;20467;-41
2021/04/09 04:50:29;;;;;;;7.90;4.25;;;1.20;90.80;;;;;;5090757;28;20024;-42
2021/04/09 04:52:55;;;;;;;6.78;4.00;;;1.30;90.70;;;;;;5072520;28;20033;-40
2021/04/09 04:55:20;;;;;;;6.28;3.90;;;1.40;90.70;;;;;;5072315;28;20372;-40
2021/04/09 04:57:46;;;;;;;9.18;5.03;;;1.50;90.50;;;;;;5072152;28;20028;-40
2021/04/09 05:00:12;;;;;;;7.18;4.13;;;1.60;90.30;;;;;;5071491;28;20409;-40
2021/04/09 05:02:37;;;;;;;11.95;6.07;;;1.70;90.10;;;;;;5072568;28;20539;-40
2021/04/09 05:05:05;;;;;;;8.23;4.82;;;1.90;89.50;;;;;;5072339;28;20116;-40
2021/04/09 05:07:31;;;;;;;8.32;4.70;;;2.30;88.60;;;;;;5072476;28;20028;-42
2021/04/09 05:09:56;;;;;;;9.10;4.82;;;2.50;87.70;;;;;;5072112;28;20028;-40
2021/04/09 05:12:22;;;;;;;10.30;4.13;;;2.90;86.90;;;;;;5072299;28;20025;-40
2021/04/09 05:14:47;;;;;;;6.70;4.75;;;3.50;85.30;;;;;;5071319;28;20530;-45
2021/04/09 05:17:13;;;;;;;9.30;4.13;;;4.30;82.40;;;;;;5072291;28;20032;-42
2021/04/09 05:19:38;;;;;;;7.28;3.78;;;5.10;81.10;;;;;;5072214;28;20466;-41
2021/04/09 05:22:04;;;;;;;11.00;5.07;;;5.30;78.20;;;;;;5072178;28;20043;-42
2021/04/09 05:24:30;;;;;;;6.00;3.53;;;5.20;78.20;;;;;;5072200;28;20029;-43
2021/04/09 05:26:55;;;;;;;8.30;4.57;;;5.30;77.40;;;;;;5072045;28;20169;-41
2021/04/09 05:29:21;;;;;;;6.40;4.00;;;5.90;75.50;;;;;;5086419;28;20353;-42
2021/04/09 05:31:46;;;;;;;12.00;4.50;;;6.60;75.70;;;;;;5077066;28;20025;-41
2021/04/09 05:34:12;;;;;;;5.90;3.13;;;7.40;72.20;;;;;;5070924;28;20025;-44
2021/04/09 05:36:37;;;;;;;4.95;3.33;;;8.30;71.80;;;;;;5071961;28;20025;-41
2021/04/09 05:39:03;;;;;;;9.13;3.97;;;9.10;69.00;;;;;;5071723;28;20070;-41
2021/04/09 05:41:28;;;;;;;7.78;4.25;;;9.80;66.80;;;;;;5072150;28;20078;-41
2021/04/09 05:43:54;;;;;;;6.45;4.00;;;10.00;65.90;;;;;;5071250;28;20032;-43
2021/04/09 05:46:20;;;;;;;6.30;3.90;;;10.50;66.00;;;;;;5072037;28;20068;-41
2021/04/09 05:48:45;;;;;;;9.45;4.65;;;10.90;64.90;;;;;;5071939;28;20025;-43
2021/04/09 05:51:11;;;;;;;5.57;3.67;;;11.40;62.30;;;;;;5071295;28;20037;-43
2021/04/09 05:53:39;;;;;;;8.32;3.90;;;11.50;61.20;;;;;;5074873;28;20510;-41
2021/04/09 05:56:05;;;;;;;5.72;3.83;;;11.10;60.60;;;;;;5075025;28;20101;-45
2021/04/09 05:58:31;;;;;;;5.28;3.38;;;11.50;61.20;;;;;;5074570;28;20051;-41
2021/04/09 06:00:56;;;;;;;7.78;3.67;;;12.10;61.90;;;;;;5075124;28;20029;-44
2021/04/09 06:03:22;;;;;;;6.05;3.95;;;12.70;59.10;;;;;;5075339;28;20028;-41
2021/04/09 06:05:47;;;;;;;6.68;3.80;;;13.10;58.50;;;;;;5075325;28;20039;-43
2021/04/09 06:08:13;;;;;;;8.20;4.35;;;13.40;57.60;;;;;;5075175;28;20045;-41
2021/04/09 06:10:38;;;;;;;6.25;4.13;;;13.10;56.70;;;;;;5072979;28;20035;-45
2021/04/09 06:13:04;;;;;;;6.05;3.92;;;12.60;57.50;;;;;;5074891;28;20063;-41
2021/04/09 06:15:30;;;;;;;7.45;4.10;;;12.10;57.00;;;;;;5074191;28;20109;-43
2021/04/09 06:17:56;;;;;;;8.68;4.28;;;11.90;58.30;;;;;;5073626;28;20028;-43
2021/04/09 06:20:22;;;;;;;5.25;3.58;;;12.70;58.00;;;;;;5075035;28;20098;-41
2021/04/09 06:22:47;;;;;;;4.60;3.25;;;13.30;57.00;;;;;;5075107;28;20418;-43
2021/04/09 06:25:14;;;;;;;9.70;4.20;;;13.30;56.00;;;;;;5074820;28;20032;-43
2021/04/09 06:27:39;;;;;;;8.10;4.40;;;12.90;56.40;;;;;;5074985;28;20031;-42
2021/04/09 06:30:06;;;;;;;6.60;3.45;;;12.90;55.70;;;;;;5073612;28;20028;-42
2021/04/09 06:32:31;;;;;;;6.32;4.13;;;13.20;55.80;;;;;;5073633;28;20056;-42
2021/04/09 06:34:57;;;;;;;3.42;3.05;;;13.20;54.10;;;;;;5074863;28;20062;-42
2021/04/09 06:37:22;;;;;;;5.68;3.03;;;13.80;55.10;;;;;;5074794;28;20067;-44
2021/04/09 06:39:48;;;;;;;9.18;4.45;;;13.30;55.30;;;;;;5074680;28;20048;-42
2021/04/09 06:42:17;;;;;;;6.15;3.92;;;12.30;54.80;;;;;;5074531;28;20672;-41
2021/04/09 06:44:47;;;;;;;7.70;4.65;;;11.50;55.60;;;;;;5073858;28;20028;-41
2021/04/09 06:47:13;;;;;;;7.65;3.95;;;11.10;55.50;;;;;;5074504;28;20063;-41
2021/04/09 06:49:40;;;;;;;6.90;4.18;;;11.20;56.70;;;;;;5074611;28;20028;-41
2021/04/09 06:52:08;;;;;;;13.50;4.90;;;11.30;56.50;;;;;;5074155;28;20143;-41
2021/04/09 06:54:35;;;;;;;5.63;3.58;;;11.40;55.00;;;;;;5074396;28;20548;-43
2021/04/09 06:57:02;;;;;;;8.25;3.67;;;11.40;56.10;;;;;;5074329;28;20403;-44
2021/04/09 06:59:31;;;;;;;7.03;3.40;;;11.40;56.30;;;;;;5073562;28;20024;-43
2021/04/09 07:01:57;;;;;;;9.57;5.20;;;11.50;55.70;;;;;;5074445;28;20032;-41
2021/04/09 07:04:23;;;;;;;4.25;2.95;;;11.70;55.50;;;;;;5074114;28;20487;-46
2021/04/09 07:06:50;;;;;;;5.43;3.50;;;12.20;55.90;;;;;;5074249;28;20040;-41
2021/04/09 07:09:16;;;;;;;11.38;5.55;;;12.40;55.80;;;;;;5073953;28;20070;-43
2021/04/09 07:11:49;;;;;;;8.85;5.28;;;12.50;53.80;;;;;;5074020;28;20415;-43
2021/04/09 07:14:14;;;;;;;6.38;4.13;;;12.70;52.30;;;;;;5073093;28;20040;-41
2021/04/09 07:17:04;;;;;;;6.28;3.55;;;12.60;53.50;;;;;;5073891;28;20024;-42
2021/04/09 07:19:34;;;;;;;6.65;3.60;;;12.30;54.10;;;;;;5073854;28;20021;-43
2021/04/09 07:22:05;;;;;;;7.72;3.90;;;11.90;54.50;;;;;;5073744;28;20537;-41
2021/04/09 07:24:31;;;;;;;5.57;4.15;;;11.60;55.20;;;;;;5073859;28;20103;-41
2021/04/09 07:27:00;;;;;;;8.98;4.70;;;11.40;55.30;;;;;;5073918;28;20492;-41
2021/04/09 07:29:31;;;;;;;6.47;3.92;;;12.10;54.30;;;;;;5072654;28;20067;-44
2021/04/09 07:32:00;;;;;;;5.57;3.42;;;12.60;54.30;;;;;;5073463;28;20032;-44
2021/04/09 07:34:46;;;;;;;6.68;3.55;;;13.30;53.60;;;;;;5073617;28;20027;-41
2021/04/09 07:37:12;;;;;;;6.73;3.80;;;14.00;53.10;;;;;;5073467;28;20112;-47
2021/04/09 07:39:38;;;;;;;6.78;4.18;;;13.90;52.40;;;;;;5073544;28;20259;-41
2021/04/09 07:42:12;;;;;;;5.03;3.55;;;13.40;52.50;;;;;;5073549;28;20078;-41
2021/04/09 07:44:38;;;;;;;4.50;3.15;;;12.80;53.00;;;;;;5072423;28;20029;-42
2021/04/09 07:47:12;;;;;;;5.10;3.70;;;12.40;54.10;;;;;;5073234;28;20078;-42
2021/04/09 07:49:38;;;;;;;10.93;4.10;;;12.00;54.00;;;;;;5073533;28;20020;-43
2021/04/09 07:52:15;;;;;;;7.60;3.60;;;12.40;54.00;;;;;;5073031;28;20039;-41
2021/04/09 07:54:41;;;;;;;7.72;3.70;;;13.40;52.30;;;;;;5073326;28;20128;-43
2021/04/09 07:57:07;;;;;;;4.45;3.38;;;14.90;51.70;;;;;;5072797;28;20124;-44
2021/04/09 07:59:37;;;;;;;4.88;2.97;;;16.50;50.90;;;;;;5072342;28;20502;-41
2021/04/09 08:02:03;;;;;;;8.40;4.30;;;17.90;49.50;;;;;;5073004;28;20484;-43
2021/04/09 08:04:39;;;;;;;5.90;3.10;;;19.00;47.60;;;;;;5073040;28;20541;-42
2021/04/09 08:07:05;;;;;;;5.25;3.85;;;19.60;47.30;;;;;;5073024;28;20168;-43
2021/04/09 08:09:50;;;;;;;6.80;3.70;;;19.20;45.50;;;;;;5072945;28;20055;-44
2021/04/09 08:12:27;;;;;;;6.55;3.72;;;18.80;43.70;;;;;;5072098;28;20060;-42
2021/04/09 08:14:54;;;;;;;6.38;3.28;;;18.60;44.50;;;;;;5072037;28;20125;-42
2021/04/09 08:17:21;;;;;;;7.38;4.55;;;19.00;46.00;;;;;;5072622;28;20486;-41
2021/04/09 08:19:52;;;;;;;5.82;3.70;;;18.30;43.70;;;;;;5072916;28;20418;-42
2021/04/09 08:22:19;;;;;;;8.43;4.30;;;17.60;43.80;;;;;;5072539;28;20481;-41
2021/04/09 08:24:45;;;;;;;7.00;4.70;;;17.20;44.90;;;;;;5072884;28;20024;-44
2021/04/09 08:27:13;;;;;;;10.05;5.57;;;17.50;44.20;;;;;;5072665;28;20051;-42
2021/04/09 08:29:41;;;;;;;5.90;3.65;;;18.10;43.80;;;;;;5071841;28;20021;-42
2021/04/09 08:32:09;;;;;;;7.15;3.58;;;18.50;44.50;;;;;;5072524;28;20495;-42
2021/04/09 08:34:35;;;;;;;5.85;3.75;;;18.90;44.00;;;;;;5072567;28;20025;-43
2021/04/09 08:37:02;;;;;;;7.22;3.55;;;19.10;43.60;;;;;;5072561;28;20056;-42
2021/04/09 08:39:28;;;;;;;5.43;4.40;;;19.20;43.90;;;;;;5072476;28;20081;-42
2021/04/09 08:41:56;;;;;;;6.32;3.65;;;19.60;43.00;;;;;;5072584;28;20538;-42
2021/04/09 08:44:21;;;;;;;5.38;3.53;;;20.00;43.10;;;;;;5071526;28;20032;-44
2021/04/09 08:46:47;;;;;;;4.70;3.33;;;20.20;43.10;;;;;;5072492;28;20021;-44
2021/04/09 08:49:14;;;;;;;5.97;3.45;;;20.10;42.50;;;;;;5072171;28;20024;-43
2021/04/09 08:51:41;;;;;;;7.78;4.18;;;19.80;42.40;;;;;;5072277;28;20039;-42
2021/04/09 08:54:23;;;;;;;7.65;4.00;;;19.30;42.20;;;;;;5072447;28;20028;-42
2021/04/09 08:56:49;;;;;;;5.13;3.63;;;19.10;40.40;;;;;;5072249;28;20510;-44
2021/04/09 08:59:35;;;;;;;5.47;3.67;;;18.90;42.90;;;;;;5071397;28;20031;-42
2021/04/09 09:02:53;;;;;;;5.43;3.40;;;18.70;43.10;;;;;;5072200;28;20032;-42
2021/04/09 09:05:21;;;;;;;4.88;3.33;;;18.80;41.90;;;;;;5046662;28;20483;-42
2021/04/09 09:07:51;;;;;;;9.20;3.20;;;19.00;43.30;;;;;;5072315;28;20469;-44
2021/04/09 09:10:22;;;;;;;7.13;3.75;;;19.30;42.10;;;;;;5071936;28;20021;-42
2021/04/09 09:13:06;;;;;;;4.18;2.55;;;19.60;42.00;;;;;;5072306;28;20016;-42
2021/04/09 09:15:44;;;;;;;8.10;3.75;;;19.80;41.70;;;;;;5071268;28;20104;-45
2021/04/09 09:18:31;;;;;;;4.30;3.65;;;19.60;40.40;;;;;;5072175;28;20020;-42
2021/04/09 09:21:14;;;;;;;5.60;3.28;;;19.50;40.70;;;;;;5072110;28;20047;-42
2021/04/09 09:23:48;;;;;;;7.15;4.38;;;19.50;39.70;;;;;;5073796;28;20033;-42
2021/04/09 09:26:18;;;;;;;8.30;3.83;;;19.20;41.20;;;;;;5076047;28;20548;-42
2021/04/09 09:28:48;;;;;;;4.93;3.22;;;19.30;41.70;;;;;;5075207;28;20440;-43
2021/04/09 09:31:29;;;;;;;7.72;4.30;;;19.40;41.60;;;;;;5075810;28;20028;-43
2021/04/09 09:34:17;;;;;;;10.00;4.30;;;19.60;39.90;;;;;;5076021;28;20032;-43
2021/04/09 09:36:59;;;;;;;4.43;3.53;;;19.80;39.90;;;;;;5076064;28;20025;-42
2021/04/09 09:39:57;;;;;;;5.20;3.50;;;20.20;40.40;;;;;;5075624;28;20024;-42
2021/04/09 09:42:26;;;;;;;5.93;3.28;;;20.60;39.00;;;;;;5063919;28;20033;-42
2021/04/09 09:44:58;;;;;;;4.78;3.65;;;20.90;39.80;;;;;;5075024;28;20025;-42
2021/04/09 09:47:31;;;;;;;4.05;3.50;;;21.00;39.90;;;;;;5075622;28;20028;-44
2021/04/09 09:50:12;;;;;;;4.85;3.25;;;21.20;39.50;;;;;;5075405;28;20017;-42
2021/04/09 09:53:05;;;;;;;6.63;3.97;;;21.10;38.90;;;;;;5075287;28;20025;-42
2021/04/09 09:55:31;;;;;;;7.60;4.03;;;21.20;38.30;;;;;;5075230;28;20055;-42
2021/04/09 09:58:04;;;;;;;5.20;3.83;;;21.00;39.50;;;;;;5075561;28;20043;-45
2021/04/09 10:00:38;;;;;;;5.82;3.45;;;20.90;39.70;;;;;;5074520;28;20060;-44
2021/04/09 10:03:22;;;;;;;5.22;3.58;;;20.80;39.40;;;;;;5075490;28;20069;-42
2021/04/09 10:05:55;;;;;;;6.68;3.00;;;20.60;37.80;;;;;;5075214;28;20023;-43
2021/04/09 10:08:22;;;;;;;6.57;3.97;;;20.30;39.70;;;;;;5075307;28;20058;-42
2021/04/09 10:10:59;;;;;;;6.90;4.13;;;19.80;39.80;;;;;;5075052;28;20032;-42
2021/04/09 10:13:34;;;;;;;9.57;4.15;;;19.30;39.50;;;;;;5074286;28;20411;-42
2021/04/09 10:16:11;;;;;;;6.53;4.60;;;18.80;40.60;;;;;;5075253;28;20024;-41
2021/04/09 10:18:41;;;;;;;8.43;4.88;;;18.20;40.70;;;;;;5075093;28;20020;-42
2021/04/09 10:21:16;;;;;;;5.70;4.18;;;17.80;41.70;;;;;;5074830;28;20112;-42
2021/04/09 10:23:44;;;;;;;6.00;3.90;;;17.30;42.10;;;;;;5074942;28;20356;-42
2021/04/09 10:26:12;;;;;;;4.47;3.33;;;17.00;42.70;;;;;;5075113;28;20035;-42
2021/04/09 10:28:39;;;;;;;6.93;4.07;;;16.90;43.00;;;;;;5072536;28;20448;-41
2021/04/09 10:31:14;;;;;;;8.50;4.78;;;16.80;43.10;;;;;;5074895;28;20471;-42
2021/04/09 10:33:42;;;;;;;8.50;5.60;;;16.50;43.20;;;;;;5074627;28;20033;-43
2021/04/09 10:36:24;;;;;;;10.82;6.15;;;16.10;43.50;;;;;;5074132;28;20032;-42
2021/04/09 10:39:01;;;;;;;7.22;4.38;;;15.90;44.40;;;;;;5074830;28;20021;-41
2021/04/09 10:41:33;;;;;;;8.02;4.22;;;15.60;44.90;;;;;;5074599;28;20036;-41
2021/04/09 10:44:19;;;;;;;9.30;5.00;;;15.40;45.20;;;;;;5073633;28;20024;-41
2021/04/09 10:46:54;;;;;;;7.25;3.95;;;15.40;46.10;;;;;;5074833;28;20379;-44
2021/04/09 10:49:21;;;;;;;4.50;2.97;;;15.40;45.70;;;;;;5074685;28;20510;-42
2021/04/09 10:51:57;;;;;;;6.18;3.75;;;15.50;45.60;;;;;;5074154;28;20552;-42
2021/04/09 10:54:26;;;;;;;;;;;15.60;45.50;;;;;;5074838;28;20028;-41
2021/04/09 10:56:54;;;;;;;5.90;3.17;;;15.60;45.70;;;;;;5074401;28;19917;-42
2021/04/09 10:59:31;;;;;;;6.13;3.00;;;15.50;45.60;;;;;;5073671;28;20380;-44
2021/04/09 11:01:57;;;;;;;6.72;4.45;;;15.40;45.70;;;;;;5074395;28;20128;-42
2021/04/09 11:04:24;;;;;;;5.40;3.60;;;15.40;45.80;;;;;;5074227;28;20111;-44
2021/04/09 11:06:50;;;;;;;7.78;3.80;;;15.30;45.90;;;;;;5074116;28;20116;-43
2021/04/09 11:09:16;;;;;;;4.97;3.42;;;15.20;46.20;;;;;;5074350;28;20482;-41
2021/04/09 11:11:41;;;;;;;4.47;3.30;;;15.20;46.40;;;;;;5073899;28;20056;-42
2021/04/09 11:14:09;;;;;;;7.40;3.67;;;15.20;46.60;;;;;;5073240;28;20020;-42
2021/04/09 11:16:56;;;;;;;8.40;3.17;;;15.20;46.70;;;;;;5073993;28;20032;-41
2021/04/09 11:19:35;;;;;;;6.15;2.95;;;15.20;46.90;;;;;;5073990;28;20020;-42
2021/04/09 11:22:04;;;;;;;9.65;5.30;;;15.30;47.00;;;;;;5073740;28;20083;-41
2021/04/09 11:24:36;;;;;;;6.60;4.10;;;15.20;47.00;;;;;;5073719;28;20025;-41
2021/04/09 11:27:15;;;;;;;5.05;3.13;;;15.10;47.10;;;;;;5073696;28;20060;-41
2021/04/09 11:29:41;;;;;;;6.57;3.30;;;15.00;47.30;;;;;;5071335;28;20146;-41
2021/04/09 11:32:21;;;;;;;4.82;3.38;;;14.90;47.40;;;;;;5073301;28;20024;-42
2021/04/09 11:34:50;;;;;;;5.50;3.70;;;14.80;47.50;;;;;;5073641;28;20028;-41
2021/04/09 11:37:17;;;;;;;5.82;3.13;;;14.60;47.90;;;;;;5073516;28;20021;-46
2021/04/09 11:39:50;;;;;;;6.30;3.42;;;14.50;48.00;;;;;;5073479;28;20173;-41
2021/04/09 11:42:27;;;;;;;4.47;3.80;;;14.50;48.50;;;;;;5073423;28;20025;-43
2021/04/09 11:44:54;;;;;;;6.97;4.75;;;14.50;48.20;;;;;;5072594;28;20109;-41
2021/04/09 11:47:28;;;;;;;7.18;4.85;;;14.50;48.50;;;;;;5072546;28;20375;-41
2021/04/09 11:49:59;;;;;;;6.18;4.40;;;14.40;48.60;;;;;;5073347;28;20032;-43
2021/04/09 11:52:26;;;;;;;8.00;4.38;;;14.30;48.70;;;;;;5072934;28;20028;-42
2021/04/09 11:54:51;;;;;;;9.68;4.40;;;14.20;49.00;;;;;;5073075;28;20029;-43
2021/04/09 11:57:25;;;;;;;7.30;3.90;;;14.20;48.80;;;;;;5073050;28;20052;-41
2021/04/09 11:59:52;;;;;;;5.20;3.15;;;14.20;49.30;;;;;;5072339;28;20017;-42
2021/04/09 12:02:28;;;;;;;5.30;3.38;;;14.20;49.00;;;;;;5073081;28;20025;-42
2021/04/09 12:04:55;;;;;;;13.10;5.97;;;14.20;49.10;;;;;;5073126;28;20032;-41
2021/04/09 12:07:27;;;;;;;8.38;3.67;;;14.10;49.40;;;;;;5072829;28;20036;-44
2021/04/09 12:09:54;;;;;;;4.78;3.40;;;14.10;49.70;;;;;;5073000;28;20025;-43
2021/04/09 12:12:21;;;;;;;9.07;4.40;;;14.10;49.90;;;;;;5072851;28;20029;-41
2021/04/09 12:14:53;;;;;;;5.32;2.70;;;14.20;49.70;;;;;;5069416;28;20428;-41
2021/04/09 12:17:22;;;;;;;5.75;3.75;;;14.30;49.70;;;;;;5072707;28;20016;-41
2021/04/09 12:19:49;;;;;;;4.65;3.25;;;14.40;49.50;;;;;;5072715;28;20039;-42
2021/04/09 12:22:15;;;;;;;8.43;3.80;;;14.40;49.60;;;;;;5072357;28;20119;-41
2021/04/09 12:24:41;;;;;;;5.65;2.70;;;14.40;49.40;;;;;;5072692;28;20033;-41
2021/04/09 12:27:08;;;;;;;11.00;2.83;;;14.50;49.40;;;;;;5072745;28;20074;-41
2021/04/09 12:29:34;;;;;;;5.45;3.83;;;14.60;49.90;;;;;;5088736;28;20475;-44
2021/04/09 12:32:00;;;;;;;6.40;4.00;;;14.60;49.20;;;;;;5092774;28;20028;-42
2021/04/09 12:34:26;;;;;;;5.20;3.22;;;14.60;49.10;;;;;;5092931;28;20069;-43
2021/04/09 12:36:51;;;;;;;4.88;2.30;;;14.70;49.30;;;;;;5092598;28;20106;-41
2021/04/09 12:39:19;;;;;;;4.93;3.10;;;14.80;49.00;;;;;;5092774;28;20545;-41
2021/04/09 12:41:45;;;;;;;3.85;2.53;;;14.80;48.80;;;;;;5092531;28;20039;-41
2021/04/09 12:44:13;;;;;;;3.67;2.88;;;14.70;48.90;;;;;;5091856;28;20029;-41
2021/04/09 12:46:39;;;;;;;3.95;2.42;;;14.60;48.80;;;;;;5092656;28;20031;-46
2021/04/09 12:49:05;;;;;;;3.95;2.38;;;14.70;49.00;;;;;;5092682;28;20436;-41
2021/04/09 12:51:32;;;;;;;3.83;2.40;;;14.70;49.20;;;;;;5080297;28;20043;-46
2021/04/09 12:53:57;;;;;;;4.32;2.85;;;14.80;48.90;;;;;;5072160;28;20024;-42
2021/04/09 12:56:23;;;;;;;6.05;3.30;;;14.80;49.00;;;;;;5072216;28;20420;-41
2021/04/09 12:58:49;;;;;;;7.70;2.70;;;14.70;48.80;;;;;;5070932;28;20020;-41
2021/04/09 13:01:14;;;;;;;5.00;3.03;;;14.60;49.00;;;;;;5072340;28;20060;-41